sensor_id;sensor_type;location;lat;lon;timestamp;pressure;altitude;pressure_sealevel;temperature;humidity
40872;BME280;26591;43.264;26.940;2023-01-08T00:01:57;99597.59;;;6.20;66.94
40872;BME280;26591;43.264;26.940;2023-01-08T00:04:23;99598.56;;;6.31;66.80
40872;BME280;26591;43.264;26.940;2023-01-08T00:06:48;99609.78;;;6.21;66.99
40872;BME280;26591;43.264;26.940;2023-01-08T00:09:14;99601.69;;;6.13;66.85
40872;BME280;26591;43.264;26.940;2023-01-08T00:11:39;99604.53;;;6.21;67.44
40872;BME280;26591;43.264;26.940;2023-01-08T00:14:05;99611.03;;;6.17;66.79
40872;BME280;26591;43.264;26.940;2023-01-08T00:16:30;99621.78;;;6.14;67.01
40872;BME280;26591;43.264;26.940;2023-01-08T00:18:56;99615.81;;;6.12;67.12
40872;BME280;26591;43.264;26.940;2023-01-08T00:21:22;99615.56;;;6.15;66.55
40872;BME280;26591;43.264;26.940;2023-01-08T00:23:47;99618.50;;;6.33;67.28
40872;BME280;26591;43.264;26.940;2023-01-08T00:26:13;99622.31;;;6.29;67.26
40872;BME280;26591;43.264;26.940;2023-01-08T00:28:40;99622.91;;;6.33;67.17
40872;BME280;26591;43.264;26.940;2023-01-08T00:31:07;99629.88;;;6.22;66.67
40872;BME280;26591;43.264;26.940;2023-01-08T00:33:33;99620.31;;;6.21;66.34
40872;BME280;26591;43.264;26.940;2023-01-08T00:35:59;99618.97;;;6.27;66.72
40872;BME280;26591;43.264;26.940;2023-01-08T00:38:28;99622.66;;;6.36;66.40
40872;BME280;26591;43.264;26.940;2023-01-08T00:40:54;99624.94;;;6.29;66.65
40872;BME280;26591;43.264;26.940;2023-01-08T00:43:20;99619.81;;;6.28;66.61
40872;BME280;26591;43.264;26.940;2023-01-08T00:45:45;99616.34;;;6.27;66.40
40872;BME280;26591;43.264;26.940;2023-01-08T00:48:11;99617.44;;;6.24;66.48
40872;BME280;26591;43.264;26.940;2023-01-08T00:50:36;99611.88;;;6.06;66.46
40872;BME280;26591;43.264;26.940;2023-01-08T00:53:02;99604.38;;;6.02;66.33
40872;BME280;26591;43.264;26.940;2023-01-08T00:55:28;99613.91;;;6.03;67.24
40872;BME280;26591;43.264;26.940;2023-01-08T00:57:54;99610.78;;;5.98;67.27
40872;BME280;26591;43.264;26.940;2023-01-08T01:00:20;99608.78;;;6.01;66.99
40872;BME280;26591;43.264;26.940;2023-01-08T01:02:46;99601.94;;;5.99;66.93
40872;BME280;26591;43.264;26.940;2023-01-08T01:05:12;99602.91;;;5.98;66.80
40872;BME280;26591;43.264;26.940;2023-01-08T01:08:06;99607.47;;;5.84;67.31
40872;BME280;26591;43.264;26.940;2023-01-08T01:10:31;99599.44;;;5.86;67.42
40872;BME280;26591;43.264;26.940;2023-01-08T01:12:57;99606.97;;;5.90;67.91
40872;BME280;26591;43.264;26.940;2023-01-08T01:15:22;99603.97;;;5.84;68.05
40872;BME280;26591;43.264;26.940;2023-01-08T01:17:48;99602.19;;;5.95;67.95
40872;BME280;26591;43.264;26.940;2023-01-08T01:20:15;99601.09;;;5.98;67.16
40872;BME280;26591;43.264;26.940;2023-01-08T01:22:41;99604.81;;;5.95;68.04
40872;BME280;26591;43.264;26.940;2023-01-08T01:25:08;99603.84;;;5.96;67.47
40872;BME280;26591;43.264;26.940;2023-01-08T01:27:34;99601.22;;;5.96;67.94
40872;BME280;26591;43.264;26.940;2023-01-08T01:30:00;99597.44;;;6.01;67.59
40872;BME280;26591;43.264;26.940;2023-01-08T01:32:25;99591.69;;;5.95;67.97
40872;BME280;26591;43.264;26.940;2023-01-08T01:34:51;99591.91;;;6.04;67.71
40872;BME280;26591;43.264;26.940;2023-01-08T01:37:16;99581.16;;;6.07;67.38
40872;BME280;26591;43.264;26.940;2023-01-08T01:39:42;99579.13;;;5.99;67.67
40872;BME280;26591;43.264;26.940;2023-01-08T01:42:15;99587.84;;;5.88;67.72
40872;BME280;26591;43.264;26.940;2023-01-08T01:45:02;99588.22;;;5.84;67.12
40872;BME280;26591;43.264;26.940;2023-01-08T01:47:35;99582.59;;;5.88;67.14
40872;BME280;26591;43.264;26.940;2023-01-08T01:50:11;99572.72;;;5.69;67.02
40872;BME280;26591;43.264;26.940;2023-01-08T01:52:44;99575.47;;;5.45;67.49
40872;BME280;26591;43.264;26.940;2023-01-08T01:55:11;99574.31;;;5.49;68.06
40872;BME280;26591;43.264;26.940;2023-01-08T01:57:38;99572.88;;;5.33;68.53
40872;BME280;26591;43.264;26.940;2023-01-08T02:00:06;99575.38;;;5.24;68.72
40872;BME280;26591;43.264;26.940;2023-01-08T02:02:32;99572.41;;;5.28;68.63
40872;BME280;26591;43.264;26.940;2023-01-08T02:04:59;99576.00;;;5.27;68.53
40872;BME280;26591;43.264;26.940;2023-01-08T02:10:10;99575.44;;;4.77;70.14
40872;BME280;26591;43.264;26.940;2023-01-08T02:12:44;99576.56;;;4.61;70.33
40872;BME280;26591;43.264;26.940;2023-01-08T02:18:54;99573.88;;;4.74;70.41
40872;BME280;26591;43.264;26.940;2023-01-08T02:24:10;99567.84;;;4.85;70.44
40872;BME280;26591;43.264;26.940;2023-01-08T02:26:58;99567.34;;;4.80;69.89
40872;BME280;26591;43.264;26.940;2023-01-08T02:29:26;99568.41;;;4.77;70.40
40872;BME280;26591;43.264;26.940;2023-01-08T02:31:53;99568.63;;;4.74;70.93
40872;BME280;26591;43.264;26.940;2023-01-08T02:34:19;99566.16;;;4.84;70.83
40872;BME280;26591;43.264;26.940;2023-01-08T02:36:54;99560.94;;;5.07;70.05
40872;BME280;26591;43.264;26.940;2023-01-08T02:39:50;99568.28;;;4.90;70.32
40872;BME280;26591;43.264;26.940;2023-01-08T02:45:57;99565.84;;;4.64;71.43
40872;BME280;26591;43.264;26.940;2023-01-08T02:48:35;99569.34;;;4.76;71.31
40872;BME280;26591;43.264;26.940;2023-01-08T02:51:18;99566.44;;;4.56;72.18
40872;BME280;26591;43.264;26.940;2023-01-08T02:53:49;99566.22;;;4.60;72.14
40872;BME280;26591;43.264;26.940;2023-01-08T02:56:21;99570.75;;;4.33;72.42
40872;BME280;26591;43.264;26.940;2023-01-08T02:58:50;99570.34;;;4.51;72.51
40872;BME280;26591;43.264;26.940;2023-01-08T03:01:17;99561.59;;;4.39;72.71
40872;BME280;26591;43.264;26.940;2023-01-08T03:03:49;99569.66;;;4.60;72.13
40872;BME280;26591;43.264;26.940;2023-01-08T03:06:17;99562.53;;;4.73;72.45
40872;BME280;26591;43.264;26.940;2023-01-08T03:08:47;99564.47;;;4.83;72.06
40872;BME280;26591;43.264;26.940;2023-01-08T03:11:16;99564.41;;;5.07;71.69
40872;BME280;26591;43.264;26.940;2023-01-08T03:19:14;99571.03;;;4.77;71.39
40872;BME280;26591;43.264;26.940;2023-01-08T03:21:44;99563.03;;;4.79;71.56
40872;BME280;26591;43.264;26.940;2023-01-08T03:24:17;99560.03;;;4.72;72.05
40872;BME280;26591;43.264;26.940;2023-01-08T03:26:45;99564.56;;;4.70;71.91
40872;BME280;26591;43.264;26.940;2023-01-08T03:29:15;99570.56;;;4.83;71.57
40872;BME280;26591;43.264;26.940;2023-01-08T03:31:43;99566.72;;;4.76;71.58
40872;BME280;26591;43.264;26.940;2023-01-08T03:34:10;99565.66;;;4.79;71.76
40872;BME280;26591;43.264;26.940;2023-01-08T03:36:40;99563.50;;;4.72;72.32
40872;BME280;26591;43.264;26.940;2023-01-08T03:39:30;99561.31;;;4.55;72.20
40872;BME280;26591;43.264;26.940;2023-01-08T03:42:04;99569.19;;;4.55;72.22
40872;BME280;26591;43.264;26.940;2023-01-08T03:44:31;99575.75;;;4.61;71.69
40872;BME280;26591;43.264;26.940;2023-01-08T03:46:57;99567.53;;;4.65;72.07
40872;BME280;26591;43.264;26.940;2023-01-08T03:49:25;99571.13;;;4.76;71.71
40872;BME280;26591;43.264;26.940;2023-01-08T03:51:51;99572.06;;;4.74;71.88
40872;BME280;26591;43.264;26.940;2023-01-08T03:54:19;99580.59;;;4.89;71.54
40872;BME280;26591;43.264;26.940;2023-01-08T03:56:45;99577.47;;;4.96;71.60
40872;BME280;26591;43.264;26.940;2023-01-08T03:59:12;99570.97;;;5.13;70.92
40872;BME280;26591;43.264;26.940;2023-01-08T04:01:38;99582.59;;;4.86;70.56
40872;BME280;26591;43.264;26.940;2023-01-08T04:04:04;99584.97;;;4.89;70.73
40872;BME280;26591;43.264;26.940;2023-01-08T04:06:30;99583.31;;;4.88;70.62
40872;BME280;26591;43.264;26.940;2023-01-08T04:08:56;99584.31;;;4.98;70.34
40872;BME280;26591;43.264;26.940;2023-01-08T04:11:22;99587.03;;;4.97;70.41
40872;BME280;26591;43.264;26.940;2023-01-08T04:13:47;99585.63;;;5.04;70.00
40872;BME280;26591;43.264;26.940;2023-01-08T04:16:13;99579.00;;;4.87;69.82
40872;BME280;26591;43.264;26.940;2023-01-08T04:18:38;99585.19;;;4.74;70.26
40872;BME280;26591;43.264;26.940;2023-01-08T04:21:04;99586.63;;;4.79;70.65
40872;BME280;26591;43.264;26.940;2023-01-08T04:23:29;99590.22;;;4.78;70.65
40872;BME280;26591;43.264;26.940;2023-01-08T04:25:55;99586.19;;;4.85;70.30
40872;BME280;26591;43.264;26.940;2023-01-08T04:28:20;99583.50;;;4.73;70.41
40872;BME280;26591;43.264;26.940;2023-01-08T04:30:57;99581.97;;;4.71;70.08
40872;BME280;26591;43.264;26.940;2023-01-08T04:33:23;99583.25;;;4.65;70.60
40872;BME280;26591;43.264;26.940;2023-01-08T04:35:51;99587.28;;;4.58;70.52
40872;BME280;26591;43.264;26.940;2023-01-08T04:38:16;99583.63;;;4.61;71.02
40872;BME280;26591;43.264;26.940;2023-01-08T04:40:42;99575.50;;;4.64;71.07
40872;BME280;26591;43.264;26.940;2023-01-08T04:43:20;99588.53;;;4.77;70.13
40872;BME280;26591;43.264;26.940;2023-01-08T04:45:45;99584.25;;;4.76;69.53
40872;BME280;26591;43.264;26.940;2023-01-08T04:48:11;99585.72;;;4.55;70.35
40872;BME280;26591;43.264;26.940;2023-01-08T04:50:51;99589.22;;;4.32;71.05
40872;BME280;26591;43.264;26.940;2023-01-08T04:53:19;99590.44;;;4.39;70.70
40872;BME280;26591;43.264;26.940;2023-01-08T04:55:45;99596.06;;;4.46;71.56
40872;BME280;26591;43.264;26.940;2023-01-08T04:58:11;99599.44;;;4.59;71.26
40872;BME280;26591;43.264;26.940;2023-01-08T05:00:38;99594.19;;;4.59;70.79
40872;BME280;26591;43.264;26.940;2023-01-08T05:03:17;99601.41;;;4.68;70.76
40872;BME280;26591;43.264;26.940;2023-01-08T05:05:43;99594.66;;;4.53;70.61
40872;BME280;26591;43.264;26.940;2023-01-08T05:08:08;99587.28;;;4.58;70.42
40872;BME280;26591;43.264;26.940;2023-01-08T05:10:34;99587.28;;;4.58;70.63
40872;BME280;26591;43.264;26.940;2023-01-08T05:13:00;99588.66;;;4.39;70.45
40872;BME280;26591;43.264;26.940;2023-01-08T05:15:26;99594.38;;;4.45;70.89
40872;BME280;26591;43.264;26.940;2023-01-08T05:17:59;99589.88;;;4.47;70.32
40872;BME280;26591;43.264;26.940;2023-01-08T05:20:25;99587.34;;;4.34;70.79
40872;BME280;26591;43.264;26.940;2023-01-08T05:22:50;99598.38;;;4.26;70.85
40872;BME280;26591;43.264;26.940;2023-01-08T05:25:16;99602.63;;;4.27;71.02
40872;BME280;26591;43.264;26.940;2023-01-08T05:27:41;99612.81;;;4.32;71.06
40872;BME280;26591;43.264;26.940;2023-01-08T05:30:07;99600.53;;;4.08;71.50
40872;BME280;26591;43.264;26.940;2023-01-08T05:32:32;99606.63;;;4.08;72.17
40872;BME280;26591;43.264;26.940;2023-01-08T05:34:58;99601.38;;;4.08;71.79
40872;BME280;26591;43.264;26.940;2023-01-08T05:37:30;99603.19;;;4.19;71.35
40872;BME280;26591;43.264;26.940;2023-01-08T05:39:55;99598.97;;;4.05;71.53
40872;BME280;26591;43.264;26.940;2023-01-08T05:42:27;99593.94;;;4.02;71.91
40872;BME280;26591;43.264;26.940;2023-01-08T05:44:52;99596.38;;;3.92;71.83
40872;BME280;26591;43.264;26.940;2023-01-08T05:47:18;99603.03;;;3.72;72.07
40872;BME280;26591;43.264;26.940;2023-01-08T05:49:43;99603.78;;;3.74;72.57
40872;BME280;26591;43.264;26.940;2023-01-08T05:52:09;99599.06;;;3.66;72.37
40872;BME280;26591;43.264;26.940;2023-01-08T05:54:34;99598.81;;;3.82;72.56
40872;BME280;26591;43.264;26.940;2023-01-08T05:57:00;99604.00;;;4.08;72.64
40872;BME280;26591;43.264;26.940;2023-01-08T05:59:25;99596.41;;;4.41;72.18
40872;BME280;26591;43.264;26.940;2023-01-08T06:01:51;99602.50;;;4.77;71.35
40872;BME280;26591;43.264;26.940;2023-01-08T06:04:16;99606.84;;;5.12;70.47
40872;BME280;26591;43.264;26.940;2023-01-08T06:06:42;99602.47;;;5.24;69.58
40872;BME280;26591;43.264;26.940;2023-01-08T06:09:07;99607.34;;;5.29;68.65
40872;BME280;26591;43.264;26.940;2023-01-08T06:11:33;99606.34;;;4.96;68.61
40872;BME280;26591;43.264;26.940;2023-01-08T06:13:59;99609.78;;;4.85;68.10
40872;BME280;26591;43.264;26.940;2023-01-08T06:16:24;99617.38;;;4.41;68.60
40872;BME280;26591;43.264;26.940;2023-01-08T06:18:50;99623.72;;;4.25;68.46
40872;BME280;26591;43.264;26.940;2023-01-08T06:21:15;99622.34;;;4.33;68.11
40872;BME280;26591;43.264;26.940;2023-01-08T06:23:40;99623.91;;;4.35;69.55
40872;BME280;26591;43.264;26.940;2023-01-08T06:26:06;99621.22;;;4.24;69.31
40872;BME280;26591;43.264;26.940;2023-01-08T06:28:32;99622.16;;;3.86;70.66
40872;BME280;26591;43.264;26.940;2023-01-08T06:30:59;99622.22;;;3.73;72.08
40872;BME280;26591;43.264;26.940;2023-01-08T06:33:27;99624.16;;;3.82;72.59
40872;BME280;26591;43.264;26.940;2023-01-08T06:35:53;99628.84;;;4.03;72.26
40872;BME280;26591;43.264;26.940;2023-01-08T06:38:19;99625.22;;;4.41;72.28
40872;BME280;26591;43.264;26.940;2023-01-08T06:40:46;99625.22;;;4.65;71.72
40872;BME280;26591;43.264;26.940;2023-01-08T06:43:12;99630.47;;;5.24;71.26
40872;BME280;26591;43.264;26.940;2023-01-08T06:45:40;99623.94;;;5.29;68.67
40872;BME280;26591;43.264;26.940;2023-01-08T06:48:06;99621.56;;;5.83;68.25
40872;BME280;26591;43.264;26.940;2023-01-08T06:50:34;99631.38;;;6.36;66.64
40872;BME280;26591;43.264;26.940;2023-01-08T06:52:59;99631.06;;;6.83;64.81
40872;BME280;26591;43.264;26.940;2023-01-08T06:55:26;99634.41;;;7.07;63.96
40872;BME280;26591;43.264;26.940;2023-01-08T06:57:56;99634.69;;;7.56;63.30
40872;BME280;26591;43.264;26.940;2023-01-08T07:00:22;99629.91;;;7.71;61.24
40872;BME280;26591;43.264;26.940;2023-01-08T07:02:50;99638.53;;;7.83;61.26
40872;BME280;26591;43.264;26.940;2023-01-08T07:05:15;99638.31;;;8.05;60.17
40872;BME280;26591;43.264;26.940;2023-01-08T07:07:41;99640.69;;;8.18;60.10
40872;BME280;26591;43.264;26.940;2023-01-08T07:10:07;99653.13;;;8.67;59.19
40872;BME280;26591;43.264;26.940;2023-01-08T07:12:33;99646.75;;;8.99;58.42
40872;BME280;26591;43.264;26.940;2023-01-08T07:14:58;99644.28;;;9.35;60.21
40872;BME280;26591;43.264;26.940;2023-01-08T07:17:24;99644.63;;;9.98;57.19
40872;BME280;26591;43.264;26.940;2023-01-08T07:19:49;99649.88;;;10.26;54.45
40872;BME280;26591;43.264;26.940;2023-01-08T07:22:15;99650.00;;;10.06;54.68
40872;BME280;26591;43.264;26.940;2023-01-08T07:24:40;99641.63;;;10.11;55.17
40872;BME280;26591;43.264;26.940;2023-01-08T07:27:06;99649.59;;;10.29;54.29
40872;BME280;26591;43.264;26.940;2023-01-08T07:29:31;99650.22;;;10.41;55.15
40872;BME280;26591;43.264;26.940;2023-01-08T07:31:57;99650.78;;;10.62;54.80
40872;BME280;26591;43.264;26.940;2023-01-08T07:34:22;99658.09;;;10.50;53.96
40872;BME280;26591;43.264;26.940;2023-01-08T07:36:48;99658.94;;;10.51;53.77
40872;BME280;26591;43.264;26.940;2023-01-08T07:39:13;99659.34;;;10.28;53.50
40872;BME280;26591;43.264;26.940;2023-01-08T07:41:41;99666.34;;;10.19;57.76
40872;BME280;26591;43.264;26.940;2023-01-08T07:44:09;99656.06;;;10.62;56.14
40872;BME280;26591;43.264;26.940;2023-01-08T07:46:34;99651.22;;;10.76;53.05
40872;BME280;26591;43.264;26.940;2023-01-08T07:49:00;99652.38;;;10.27;53.55
40872;BME280;26591;43.264;26.940;2023-01-08T07:51:26;99651.91;;;10.32;54.48
40872;BME280;26591;43.264;26.940;2023-01-08T07:53:51;99647.41;;;9.96;54.68
40872;BME280;26591;43.264;26.940;2023-01-08T07:56:17;99647.25;;;10.26;54.30
40872;BME280;26591;43.264;26.940;2023-01-08T07:58:42;99646.34;;;10.35;53.97
40872;BME280;26591;43.264;26.940;2023-01-08T08:01:11;99654.72;;;10.30;54.29
40872;BME280;26591;43.264;26.940;2023-01-08T08:03:37;99653.22;;;10.28;54.19
40872;BME280;26591;43.264;26.940;2023-01-08T08:06:03;99656.56;;;10.02;54.48
40872;BME280;26591;43.264;26.940;2023-01-08T08:08:28;99657.25;;;9.76;55.26
40872;BME280;26591;43.264;26.940;2023-01-08T08:10:54;99659.00;;;9.85;55.14
40872;BME280;26591;43.264;26.940;2023-01-08T08:13:19;99669.50;;;9.67;56.60
40872;BME280;26591;43.264;26.940;2023-01-08T08:15:45;99663.78;;;9.72;56.63
40872;BME280;26591;43.264;26.940;2023-01-08T08:18:10;99665.53;;;9.91;56.40
40872;BME280;26591;43.264;26.940;2023-01-08T08:20:37;99658.47;;;10.10;55.60
40872;BME280;26591;43.264;26.940;2023-01-08T08:23:11;99663.06;;;10.07;55.58
40872;BME280;26591;43.264;26.940;2023-01-08T08:25:38;99675.13;;;9.92;55.69
40872;BME280;26591;43.264;26.940;2023-01-08T08:28:05;99671.09;;;9.50;57.56
40872;BME280;26591;43.264;26.940;2023-01-08T08:30:32;99672.06;;;9.49;58.16
40872;BME280;26591;43.264;26.940;2023-01-08T08:33:00;99675.97;;;9.45;58.28
40872;BME280;26591;43.264;26.940;2023-01-08T08:35:26;99667.50;;;9.41;58.46
40872;BME280;26591;43.264;26.940;2023-01-08T08:37:53;99668.91;;;9.36;58.83
40872;BME280;26591;43.264;26.940;2023-01-08T08:40:18;99656.16;;;9.31;59.86
40872;BME280;26591;43.264;26.940;2023-01-08T08:42:44;99662.19;;;9.61;58.74
40872;BME280;26591;43.264;26.940;2023-01-08T08:45:10;99660.88;;;10.03;57.94
40872;BME280;26591;43.264;26.940;2023-01-08T08:47:35;99651.16;;;10.21;57.48
40872;BME280;26591;43.264;26.940;2023-01-08T08:50:01;99649.31;;;10.04;57.56
40872;BME280;26591;43.264;26.940;2023-01-08T08:52:29;99644.72;;;10.24;57.25
40872;BME280;26591;43.264;26.940;2023-01-08T08:54:54;99641.72;;;10.37;56.91
40872;BME280;26591;43.264;26.940;2023-01-08T08:57:22;99635.88;;;10.43;57.29
40872;BME280;26591;43.264;26.940;2023-01-08T08:59:48;99639.41;;;10.52;57.11
40872;BME280;26591;43.264;26.940;2023-01-08T09:02:13;99634.59;;;10.47;56.42
40872;BME280;26591;43.264;26.940;2023-01-08T09:04:39;99627.06;;;10.25;57.94
40872;BME280;26591;43.264;26.940;2023-01-08T09:07:04;99632.47;;;10.23;57.51
40872;BME280;26591;43.264;26.940;2023-01-08T09:09:30;99629.72;;;10.25;57.60
40872;BME280;26591;43.264;26.940;2023-01-08T09:11:55;99635.31;;;9.93;58.44
40872;BME280;26591;43.264;26.940;2023-01-08T09:14:22;99637.06;;;10.03;59.02
40872;BME280;26591;43.264;26.940;2023-01-08T09:16:47;99630.00;;;10.21;57.45
40872;BME280;26591;43.264;26.940;2023-01-08T09:19:13;99627.19;;;10.23;58.11
40872;BME280;26591;43.264;26.940;2023-01-08T09:21:38;99620.63;;;10.27;58.03
40872;BME280;26591;43.264;26.940;2023-01-08T09:24:05;99614.94;;;10.22;58.40
40872;BME280;26591;43.264;26.940;2023-01-08T09:26:31;99607.78;;;10.14;58.72
40872;BME280;26591;43.264;26.940;2023-01-08T09:28:57;99604.75;;;10.27;58.09
40872;BME280;26591;43.264;26.940;2023-01-08T09:31:24;99612.09;;;10.33;57.68
40872;BME280;26591;43.264;26.940;2023-01-08T09:33:49;99595.44;;;10.51;57.34
40872;BME280;26591;43.264;26.940;2023-01-08T09:36:15;99589.72;;;10.64;57.51
40872;BME280;26591;43.264;26.940;2023-01-08T09:38:41;99589.31;;;10.95;56.72
40872;BME280;26591;43.264;26.940;2023-01-08T09:41:28;99580.31;;;11.14;55.17
40872;BME280;26591;43.264;26.940;2023-01-08T09:43:57;99576.56;;;11.17;55.69
40872;BME280;26591;43.264;26.940;2023-01-08T09:46:26;99573.06;;;11.51;55.17
40872;BME280;26591;43.264;26.940;2023-01-08T09:48:55;99569.72;;;11.49;54.67
40872;BME280;26591;43.264;26.940;2023-01-08T09:51:33;99572.53;;;11.12;55.90
40872;BME280;26591;43.264;26.940;2023-01-08T09:54:00;99571.38;;;11.15;55.68
40872;BME280;26591;43.264;26.940;2023-01-08T09:56:26;99572.06;;;11.17;55.50
40872;BME280;26591;43.264;26.940;2023-01-08T09:58:54;99562.38;;;10.73;57.27
40872;BME280;26591;43.264;26.940;2023-01-08T10:01:34;99558.41;;;11.04;56.50
40872;BME280;26591;43.264;26.940;2023-01-08T10:04:22;99551.47;;;11.03;57.00
40872;BME280;26591;43.264;26.940;2023-01-08T10:07:16;99555.28;;;11.43;56.03
40872;BME280;26591;43.264;26.940;2023-01-08T10:09:40;99551.22;;;11.57;56.03
40872;BME280;26591;43.264;26.940;2023-01-08T10:12:06;99543.78;;;11.60;55.73
40872;BME280;26591;43.264;26.940;2023-01-08T10:14:32;99546.25;;;11.62;55.87
40872;BME280;26591;43.264;26.940;2023-01-08T10:17:11;99547.78;;;11.73;55.55
40872;BME280;26591;43.264;26.940;2023-01-08T10:19:40;99538.03;;;11.04;56.51
40872;BME280;26591;43.264;26.940;2023-01-08T10:22:12;99540.31;;;11.68;55.73
40872;BME280;26591;43.264;26.940;2023-01-08T10:24:39;99533.78;;;11.46;55.69
40872;BME280;26591;43.264;26.940;2023-01-08T10:27:07;99522.75;;;11.67;55.80
40872;BME280;26591;43.264;26.940;2023-01-08T10:29:33;99529.28;;;11.89;55.76
40872;BME280;26591;43.264;26.940;2023-01-08T10:32:07;99525.47;;;11.92;55.38
40872;BME280;26591;43.264;26.940;2023-01-08T10:37:35;99520.69;;;11.96;55.51
40872;BME280;26591;43.264;26.940;2023-01-08T10:42:38;99510.22;;;11.86;54.17
40872;BME280;26591;43.264;26.940;2023-01-08T10:45:09;99513.25;;;12.65;53.16
40872;BME280;26591;43.264;26.940;2023-01-08T10:47:37;99511.56;;;12.81;52.43
40872;BME280;26591;43.264;26.940;2023-01-08T10:50:04;99511.28;;;12.59;52.56
40872;BME280;26591;43.264;26.940;2023-01-08T10:52:54;99506.59;;;12.70;52.29
40872;BME280;26591;43.264;26.940;2023-01-08T10:55:28;99494.16;;;12.78;51.81
40872;BME280;26591;43.264;26.940;2023-01-08T11:00:34;99499.31;;;12.72;52.29
40872;BME280;26591;43.264;26.940;2023-01-08T11:03:08;99497.13;;;13.32;50.69
40872;BME280;26591;43.264;26.940;2023-01-08T11:05:43;99481.97;;;13.01;51.96
40872;BME280;26591;43.264;26.940;2023-01-08T11:08:19;99490.13;;;13.39;51.29
40872;BME280;26591;43.264;26.940;2023-01-08T11:10:54;99489.56;;;13.12;50.90
40872;BME280;26591;43.264;26.940;2023-01-08T11:13:20;99481.97;;;13.01;51.21
40872;BME280;26591;43.264;26.940;2023-01-08T11:15:46;99485.06;;;12.56;51.85
40872;BME280;26591;43.264;26.940;2023-01-08T11:18:24;99486.38;;;12.52;51.96
40872;BME280;26591;43.264;26.940;2023-01-08T11:20:52;99474.47;;;12.31;52.34
40872;BME280;26591;43.264;26.940;2023-01-08T11:23:23;99468.09;;;12.74;51.94
40872;BME280;26591;43.264;26.940;2023-01-08T11:28:20;99475.88;;;12.75;50.91
40872;BME280;26591;43.264;26.940;2023-01-08T11:30:58;99469.00;;;13.06;51.39
40872;BME280;26591;43.264;26.940;2023-01-08T11:33:30;99463.78;;;12.73;50.43
40872;BME280;26591;43.264;26.940;2023-01-08T11:36:04;99458.09;;;12.84;50.28
40872;BME280;26591;43.264;26.940;2023-01-08T11:38:33;99449.31;;;12.84;49.80
40872;BME280;26591;43.264;26.940;2023-01-08T11:46:29;99442.91;;;13.49;48.54
40872;BME280;26591;43.264;26.940;2023-01-08T11:52:33;99449.41;;;13.38;48.75
40872;BME280;26591;43.264;26.940;2023-01-08T11:55:14;99441.34;;;12.84;48.95
40872;BME280;26591;43.264;26.940;2023-01-08T11:57:45;99440.69;;;12.73;48.54
40872;BME280;26591;43.264;26.940;2023-01-08T12:00:51;99447.22;;;12.62;49.11
40872;BME280;26591;43.264;26.940;2023-01-08T12:03:29;99440.69;;;12.73;48.63
40872;BME280;26591;43.264;26.940;2023-01-08T12:06:39;99434.63;;;13.04;47.95
40872;BME280;26591;43.264;26.940;2023-01-08T12:15:37;99426.50;;;13.37;47.13
40872;BME280;26591;43.264;26.940;2023-01-08T12:18:41;99431.47;;;13.01;48.22
40872;BME280;26591;43.264;26.940;2023-01-08T12:21:02;99426.94;;;12.70;47.77
40872;BME280;26591;43.264;26.940;2023-01-08T12:29:01;99426.03;;;13.34;47.63
40872;BME280;26591;43.264;26.940;2023-01-08T12:34:32;99428.16;;;12.98;47.90
40872;BME280;26591;43.264;26.940;2023-01-08T12:37:10;99418.78;;;12.79;48.21
40872;BME280;26591;43.264;26.940;2023-01-08T12:39:49;99421.09;;;13.22;47.34
40872;BME280;26591;43.264;26.940;2023-01-08T12:42:19;99426.56;;;13.21;47.52
40872;BME280;26591;43.264;26.940;2023-01-08T12:44:51;99427.03;;;13.01;47.69
40872;BME280;26591;43.264;26.940;2023-01-08T12:47:20;99421.19;;;12.97;47.73
40872;BME280;26591;43.264;26.940;2023-01-08T12:55:45;99426.22;;;12.84;47.33
40872;BME280;26591;43.264;26.940;2023-01-08T13:03:32;99425.50;;;12.98;47.04
40872;BME280;26591;43.264;26.940;2023-01-08T13:06:09;99434.47;;;13.06;46.71
40872;BME280;26591;43.264;26.940;2023-01-08T13:08:36;99428.41;;;12.80;47.00
40872;BME280;26591;43.264;26.940;2023-01-08T13:11:04;99426.41;;;12.74;47.15
40872;BME280;26591;43.264;26.940;2023-01-08T13:13:33;99430.78;;;12.59;47.03
40872;BME280;26591;43.264;26.940;2023-01-08T13:16:15;99425.28;;;12.69;47.10
40872;BME280;26591;43.264;26.940;2023-01-08T13:19:02;99424.53;;;12.35;47.25
40872;BME280;26591;43.264;26.940;2023-01-08T13:21:29;99427.00;;;12.36;47.54
40872;BME280;26591;43.264;26.940;2023-01-08T13:24:04;99429.34;;;12.31;47.43
40872;BME280;26591;43.264;26.940;2023-01-08T13:26:33;99429.97;;;12.58;46.71
40872;BME280;26591;43.264;26.940;2023-01-08T13:29:51;99434.47;;;12.49;47.54
40872;BME280;26591;43.264;26.940;2023-01-08T13:31:52;99434.13;;;12.44;47.46
40872;BME280;26591;43.264;26.940;2023-01-08T13:34:21;99434.13;;;12.44;47.62
40872;BME280;26591;43.264;26.940;2023-01-08T13:36:55;99434.31;;;12.43;48.03
40872;BME280;26591;43.264;26.940;2023-01-08T13:39:22;99439.28;;;12.46;47.71
40872;BME280;26591;43.264;26.940;2023-01-08T13:42:03;99429.97;;;12.58;47.93
40872;BME280;26591;43.264;26.940;2023-01-08T13:44:51;99433.31;;;12.27;47.85
40872;BME280;26591;43.264;26.940;2023-01-08T13:47:33;99433.63;;;11.83;48.56
40872;BME280;26591;43.264;26.940;2023-01-08T13:50:15;99428.50;;;11.81;48.84
40872;BME280;26591;43.264;26.940;2023-01-08T13:52:42;99430.81;;;11.68;49.14
40872;BME280;26591;43.264;26.940;2023-01-08T13:55:36;99438.22;;;11.64;49.25
40872;BME280;26591;43.264;26.940;2023-01-08T13:58:11;99441.06;;;11.63;49.33
40872;BME280;26591;43.264;26.940;2023-01-08T14:03:25;99439.84;;;11.49;49.83
40872;BME280;26591;43.264;26.940;2023-01-08T14:05:50;99440.97;;;11.29;49.95
40872;BME280;26591;43.264;26.940;2023-01-08T14:08:24;99434.53;;;11.32;50.06
40872;BME280;26591;43.264;26.940;2023-01-08T14:10:50;99435.53;;;11.39;50.28
40872;BME280;26591;43.264;26.940;2023-01-08T14:13:17;99443.78;;;11.28;50.31